Clinchco, Virginia
Current Conditions -  °F | °C
As of 3:35 PM on Tuesday 21 Oct 2014 (Local Time) from KLNP Reporting Station
Overcast Overcast  
Wind Chill: 52°   Ceiling: 4700
Heat Index: 52°   Visibility: 10mi
Dew Point: 37°   Wind: 9mph
Humidity: 58%   Direction: 260°W
Pressure: 30.01"   Gusts: 18mph
Location:  37.16°N, 82.36°W
Report Text: KLNP 211935Z AUTO 26008G16KT 10SM OVC047 11/03 A3001 RMK AO2
Loading
Personal Weather Stations






























Interactive Weather Map
Tropical Storm Tracking
New forecast layout! Learn more

10-Day Weather Forecast

Advertisements
Track Severe Weather on mobile